Fuji Maru — JD2030 — position and weather

sailwx.info

Track history (hours):
 
Tides and Currents Weather Stations Pressure Air Temp Water Temp Dewpoint Dewpoint Depression Visibility Wind Speed Wind Dir Waves Ship Positions

Fuji Maru

Last reported at 2016-May-28 07:31 UTC. Time now 2016-May-28 08:02 UTC.
Position N 35°39' E 139°46'.

Length 38 m; draft 4.4 m.

Type: Tug. MMSI: 431001102.

Date/timePositionNaut miles runAvg speedWind from/ knotsBaromVisibWave heightAir tempDewpointWater temp
2016-May-28 07:31N 35°39' E 139°46'0 0.0
2016-May-28 06:31N 35°39' E 139°46'0 0.0
2016-May-28 05:31N 35°39' E 139°46'0 0.0
2016-May-28 04:31N 35°39' E 139°46'0 0.0
2016-May-28 03:25N 35°39' E 139°46'0 0.0
2016-May-28 02:31N 35°39' E 139°46'0 0.0
2016-May-28 01:31N 35°39' E 139°46'0 0.0
2016-May-28 00:31N 35°39' E 139°46'0 0.0
2016-May-27 23:31N 35°39' E 139°46'0 0.0
2016-May-27 22:28N 35°39' E 139°46'0 0.0
2016-May-27 21:28N 35°39' E 139°46'0 0.0
2016-May-27 20:28N 35°39' E 139°46'0 0.0
2016-May-27 19:31N 35°39' E 139°46'0 0.0
2016-May-27 18:28N 35°39' E 139°46'0 0.0
2016-May-27 17:31N 35°39' E 139°46'0 0.0
2016-May-27 16:28N 35°39' E 139°46'0 0.0
2016-May-27 15:31N 35°39' E 139°46'0 0.0
2016-May-27 14:31N 35°39' E 139°46'0 0.0
2016-May-27 13:28N 35°39' E 139°46'2 2.4
2016-May-27 12:33N 35°37' E 139°47'0 0.3
2016-May-27 11:30N 35°36' E 139°47'0 0.0
2016-May-27 10:30N 35°36' E 139°47'1 0.7
2016-May-27 09:32N 35°36' E 139°48'1 1.4
2016-May-27 08:34N 35°36' E 139°46'2 2.3
2016-May-27 07:32N 35°39' E 139°46'0 0.0
2016-May-27 06:32N 35°39' E 139°46'0 0.0
2016-May-27 05:32N 35°39' E 139°46'0 0.0
2016-May-27 04:32N 35°39' E 139°46'0 0.0
2016-May-27 03:32N 35°39' E 139°46'0 0.0
2016-May-27 02:32N 35°39' E 139°46'0 0.0
2016-May-27 01:29N 35°39' E 139°46'0 0.0
2016-May-27 00:23N 35°39' E 139°46'0 0.0
2016-May-26 23:32N 35°39' E 139°46'3 2.6
2016-May-26 22:33N 35°36' E 139°47'2 2.2
2016-May-26 21:34N 35°34' E 139°48'4 3.6
2016-May-26 20:33N 35°38' E 139°46'1 1.1
2016-May-26 19:32N 35°39' E 139°46'0 0.0
2016-May-26 18:32N 35°39' E 139°46'0 0.0
2016-May-26 17:26N 35°39' E 139°46'0 0.0
2016-May-26 16:32N 35°39' E 139°46'0 0.0
2016-May-26 15:29N 35°39' E 139°46'0 0.0
2016-May-26 14:32N 35°39' E 139°46'0 0.0
2016-May-26 13:29N 35°39' E 139°46'0 0.0
2016-May-26 12:32N 35°39' E 139°46'0 0.0
2016-May-26 11:26N 35°39' E 139°46'0 0.0
2016-May-26 10:32N 35°39' E 139°46'0 0.0
2016-May-26 09:32N 35°39' E 139°46'0 0.0
2016-May-26 08:32N 35°39' E 139°46'0 0.0
2016-May-26 07:32N 35°39' E 139°46'0 0.0
2016-May-26 06:32N 35°39' E 139°46'3 2.7
2016-May-26 05:33N 35°36' E 139°47'3 2.3
2016-May-26 04:24N 35°39' E 139°46'0 0.0
2016-May-26 03:30N 35°39' E 139°46'0 0.0
2016-May-26 02:30N 35°39' E 139°46'0 0.0
2016-May-26 01:30N 35°39' E 139°46'0 0.0
2016-May-26 00:27N 35°39' E 139°46'0 0.0
2016-May-25 23:33N 35°39' E 139°46'0 0.0
2016-May-25 22:33N 35°39' E 139°46'0 0.0
2016-May-25 21:15N 35°39' E 139°46'0 0.0
2016-May-25 20:33N 35°39' E 139°46'0 0.0
2016-May-25 19:33N 35°39' E 139°46'0 0.0
2016-May-25 18:27N 35°39' E 139°46'0 0.0
2016-May-25 17:33N 35°39' E 139°46'0 0.0
2016-May-25 16:33N 35°39' E 139°46'0 0.0
2016-May-25 15:30N 35°39' E 139°46'0 0.0
2016-May-25 14:30N 35°39' E 139°46'0 0.0
2016-May-25 13:33N 35°39' E 139°46'0 0.0
2016-May-25 12:33N 35°39' E 139°46'0 0.0
2016-May-25 11:33N 35°39' E 139°46'0 0.0
2016-May-25 10:33N 35°39' E 139°46'3 3.0
2016-May-25 09:34N 35°36' E 139°46'1 0.7
2016-May-25 08:31N 35°36' E 139°47'2 1.7
2016-May-25 07:31N 35°37' E 139°46'2 1.6
2016-May-25 06:30N 35°39' E 139°46'0 0.0
2016-May-25 05:24N 35°39' E 139°46'0 0.0
2016-May-25 04:33N 35°39' E 139°46'0 0.0
2016-May-25 03:33N 35°39' E 139°46'0 0.0
2016-May-25 02:30N 35°39' E 139°46'0 0.0
2016-May-25 01:33N 35°39' E 139°46'0 0.0
2016-May-25 00:33N 35°39' E 139°46'2 2.2
2016-May-24 23:33N 35°37' E 139°46'2 2.2
2016-May-24 22:33N 35°35' E 139°48'2 1.9
2016-May-24 21:33N 35°34' E 139°50'5 4.9
2016-May-24 20:33N 35°38' E 139°46'1 1.0
2016-May-24 19:32N 35°37' E 139°46'2 2.4
2016-May-24 18:33N 35°39' E 139°46'0 0.0
2016-May-24 17:33N 35°39' E 139°46'0 0.0
2016-May-24 16:33N 35°39' E 139°46'0 0.0
2016-May-24 15:33N 35°39' E 139°46'0 0.0
2016-May-24 14:30N 35°39' E 139°46'0 0.0
2016-May-24 13:27N 35°39' E 139°46'0 0.1
2016-May-24 12:33N 35°39' E 139°46'0 0.0
2016-May-24 11:27N 35°39' E 139°46'0 0.0
2016-May-24 10:30N 35°39' E 139°46'0 0.0
2016-May-24 09:33N 35°39' E 139°46'0 0.0
2016-May-24 08:30N 35°39' E 139°46'0 0.0
2016-May-24 07:33N 35°39' E 139°46'0 0.1
2016-May-24 06:33N 35°39' E 139°46'0 0.1
2016-May-24 05:33N 35°39' E 139°46'0 0.0
2016-May-24 04:33N 35°39' E 139°46'0 0.0
2016-May-24 03:33N 35°39' E 139°46'0 0.0
2016-May-24 02:33N 35°39' E 139°46'3 3.2
2016-May-24 01:33N 35°36' E 139°47'2 2.0
2016-May-24 00:34N 35°37' E 139°46'1 1.3
2016-May-23 23:28N 35°39' E 139°46'0 0.0
2016-May-23 22:28N 35°39' E 139°46'0 0.0
2016-May-23 21:28N 35°39' E 139°46'0 0.0
2016-May-23 20:31N 35°39' E 139°46'0 0.0
2016-May-23 19:31N 35°39' E 139°46'0 0.0
2016-May-23 18:31N 35°39' E 139°46'0 0.0
2016-May-23 17:28N 35°39' E 139°46'0 0.0
2016-May-23 16:31N 35°39' E 139°46'0 0.0
2016-May-23 15:28N 35°39' E 139°46'0 0.0
2016-May-23 14:31N 35°39' E 139°46'0 0.0
2016-May-23 13:28N 35°39' E 139°46'0 0.0
2016-May-23 12:31N 35°39' E 139°46'0 0.0
2016-May-23 11:28N 35°39' E 139°46'1 0.7
2016-May-23 10:34N 35°38' E 139°45'3 2.7
2016-May-23 09:33N 35°36' E 139°47'0 0.4
2016-May-23 08:29N 35°36' E 139°47'0 0.0
2016-May-23 07:32N 35°36' E 139°47'1 1.4
2016-May-23 06:33N 35°37' E 139°46'2 1.8
2016-May-23 05:28N 35°39' E 139°46'0 0.0
2016-May-23 04:31N 35°39' E 139°46'0 0.0
2016-May-23 03:31N 35°39' E 139°46'0 0.0
2016-May-23 02:31N 35°39' E 139°46'0 0.0
2016-May-23 01:28N 35°39' E 139°46'0 0.0
2016-May-23 00:31N 35°39' E 139°46'0 0.0
2016-May-22 23:31N 35°39' E 139°46'0 0.0
2016-May-22 22:28N 35°39' E 139°46'0 0.0
2016-May-22 21:31N 35°39' E 139°46'0 0.0
2016-May-22 20:31N 35°39' E 139°46'0 0.0
2016-May-22 19:31N 35°39' E 139°46'0 0.0
2016-May-22 18:31N 35°39' E 139°46'0 0.0
2016-May-22 17:31N 35°39' E 139°46'0 0.0
2016-May-22 16:31N 35°39' E 139°46'0 0.0
2016-May-22 15:31N 35°39' E 139°46'0 0.0
2016-May-22 14:31N 35°39' E 139°46'0 0.0
2016-May-22 13:31N 35°39' E 139°46'0 0.0
2016-May-22 12:31N 35°39' E 139°46'0 0.0
2016-May-22 11:28N 35°39' E 139°46'3 3.0
2016-May-22 10:31N 35°36' E 139°47'2 2.5
2016-May-22 09:34N 35°34' E 139°49'2 2.1
2016-May-22 08:33N 35°35' E 139°47'2 2.0
2016-May-22 07:33N 35°37' E 139°46'1 1.0
2016-May-22 06:33N 35°38' E 139°46'0 0.0
2016-May-22 05:15N 35°38' E 139°46'0 0.0
2016-May-22 04:27N 35°38' E 139°46'3 2.7
2016-May-22 03:27N 35°36' E 139°46'0 0.0
2016-May-22 02:33N 35°36' E 139°46'0 0.0
2016-May-22 01:30N 35°36' E 139°46'0 0.0
2016-May-22 00:30N 35°36' E 139°46'1 1.1
2016-May-21 23:33N 35°37' E 139°47'1 1.4
2016-May-21 22:33N 35°35' E 139°47'4 3.5
2016-May-21 21:32N 35°39' E 139°46'0 0.0
2016-May-21 20:23N 35°39' E 139°46'0 0.0
2016-May-21 19:32N 35°39' E 139°46'0 0.0
2016-May-21 18:29N 35°39' E 139°46'0 0.0
2016-May-21 17:29N 35°39' E 139°46'0 0.0
2016-May-21 16:29N 35°39' E 139°46'0 0.0
2016-May-21 15:32N 35°39' E 139°46'0 0.0
2016-May-21 14:32N 35°39' E 139°46'0 0.0
2016-May-21 13:32N 35°39' E 139°46'0 0.0
2016-May-21 12:32N 35°39' E 139°46'0 0.0
2016-May-21 11:29N 35°39' E 139°46'0 0.0
2016-May-21 10:26N 35°39' E 139°46'2 2.0
2016-May-21 09:34N 35°37' E 139°46'1 1.1
2016-May-21 08:33N 35°36' E 139°46'1 1.5
2016-May-21 07:33N 35°37' E 139°46'1 1.4
2016-May-21 06:32N 35°39' E 139°46'0 0.0
2016-May-21 05:32N 35°39' E 139°46'0 0.0
2016-May-21 04:29N 35°39' E 139°46'0 0.0
2016-May-21 03:32N 35°39' E 139°46'0 0.0
2016-May-21 02:32N 35°39' E 139°46'0 0.0
2016-May-21 01:29N 35°39' E 139°46'0 0.0
2016-May-21 00:32N 35°39' E 139°46'0 0.0
2016-May-20 23:32N 35°39' E 139°46'3 2.6
2016-May-20 22:33N 35°36' E 139°46'3 2.7
2016-May-20 21:33N 35°34' E 139°48'5 4.6
2016-May-20 20:30N 35°39' E 139°46'0 0.0
2016-May-20 19:30N 35°39' E 139°46'0 0.0
2016-May-20 18:33N 35°39' E 139°46'0 0.0
2016-May-20 17:33N 35°39' E 139°46'0 0.0
2016-May-20 16:33N 35°39' E 139°46'0 0.0
2016-May-20 15:33N 35°39' E 139°46'0 0.0
2016-May-20 14:33N 35°39' E 139°46'0 0.0
2016-May-20 13:33N 35°39' E 139°46'0 0.0
2016-May-20 12:33N 35°39' E 139°46'0 0.0
2016-May-20 11:33N 35°39' E 139°46'0 0.0
2016-May-20 10:33N 35°39' E 139°46'0 0.0
2016-May-20 09:33N 35°39' E 139°46'0 0.0
2016-May-20 08:33N 35°39' E 139°46'0 0.0
2016-May-20 07:33N 35°39' E 139°46'0 0.0
2016-May-20 06:33N 35°39' E 139°46'0 0.0
2016-May-20 05:33N 35°39' E 139°46'0 0.0
2016-May-20 04:33N 35°39' E 139°46'0 0.0
2016-May-20 03:33N 35°39' E 139°46'0 0.0
2016-May-20 02:27N 35°39' E 139°46'0 0.0
2016-May-20 01:33N 35°39' E 139°46'0 0.0
2016-May-20 00:33N 35°39' E 139°46'2 2.1
2016-May-19 23:28N 35°37' E 139°47'3 3.6
2016-May-19 22:33N 35°34' E 139°49'5 5.4
2016-May-19 21:33N 35°39' E 139°46'0 0.1
2016-May-19 20:32N 35°39' E 139°46'0 0.0
2016-May-19 19:32N 35°39' E 139°46'0 0.0
2016-May-19 18:26N 35°39' E 139°46'0 0.0
2016-May-19 17:32N 35°39' E 139°46'0 0.0
2016-May-19 16:32N 35°39' E 139°46'0 0.0
2016-May-19 15:32N 35°39' E 139°46'0 0.0
2016-May-19 14:32N 35°39' E 139°46'0 0.0
2016-May-19 13:32N 35°39' E 139°46'0 0.0
2016-May-19 12:32N 35°39' E 139°46'0 0.0
2016-May-19 11:29N 35°39' E 139°46'0 0.0
2016-May-19 10:29N 35°39' E 139°46'0 0.0
2016-May-19 09:32N 35°39' E 139°46'0 0.0
2016-May-19 08:29N 35°39' E 139°46'0 0.0
2016-May-19 07:32N 35°39' E 139°46'0 0.0
2016-May-19 06:32N 35°39' E 139°46'0 0.0
2016-May-19 04:32N 35°39' E 139°46'0 0.0
2016-May-19 03:32N 35°39' E 139°46'0 0.0
2016-May-19 02:32N 35°39' E 139°46'0 0.0
2016-May-19 01:32N 35°39' E 139°46'0 0.0
2016-May-19 00:32N 35°39' E 139°46'0 0.0
2016-May-18 23:29N 35°39' E 139°46'0 0.0
2016-May-18 22:08N 35°39' E 139°46'0 0.0
2016-May-18 21:32N 35°39' E 139°46'0 0.0
2016-May-18 20:32N 35°39' E 139°46'0 0.0
2016-May-18 19:32N 35°39' E 139°46'0 0.0
2016-May-18 18:32N 35°39' E 139°46'0 0.0
2016-May-18 17:32N 35°39' E 139°46'1 0.6
2016-May-18 16:33N 35°38' E 139°45'3 3.3
2016-May-18 15:33N 35°35' E 139°47'1 0.7
2016-May-18 14:33N 35°35' E 139°47'0 0.0
2016-May-18 13:33N 35°35' E 139°47'0 0.0
2016-May-18 12:33N 35°35' E 139°47'0 0.2
2016-May-18 11:33N 35°35' E 139°47'1 1.2
2016-May-18 10:33N 35°36' E 139°46'1 1.5
2016-May-18 09:33N 35°35' E 139°47'2 1.6
2016-May-18 08:33N 35°34' E 139°49'3 2.9
2016-May-18 07:33N 35°37' E 139°47'  
Track history (hours):
 
Tides and Currents Weather Stations Pressure Air Temp Water Temp Dewpoint Dewpoint Depression Visibility Wind Speed Wind Dir Waves Ship Positions

Fuji Maru

Last reported at 2016-May-28 07:31 UTC. Time now 2016-May-28 08:02 UTC.
Position N 35°39' E 139°46'.

Length 38 m; draft 4.4 m.

Type: Tug. MMSI: 431001102.

Date/timePositionNaut miles runAvg speedWind from/ knotsBaromVisibWave heightAir tempDewpointWater temp
2016-May-28 07:31N 35°39' E 139°46'0 0.0
2016-May-28 06:31N 35°39' E 139°46'0 0.0
2016-May-28 05:31N 35°39' E 139°46'0 0.0
2016-May-28 04:31N 35°39' E 139°46'0 0.0
2016-May-28 03:25N 35°39' E 139°46'0 0.0
2016-May-28 02:31N 35°39' E 139°46'0 0.0
2016-May-28 01:31N 35°39' E 139°46'0 0.0
2016-May-28 00:31N 35°39' E 139°46'0 0.0
2016-May-27 23:31N 35°39' E 139°46'0 0.0
2016-May-27 22:28N 35°39' E 139°46'0 0.0
2016-May-27 21:28N 35°39' E 139°46'0 0.0
2016-May-27 20:28N 35°39' E 139°46'0 0.0
2016-May-27 19:31N 35°39' E 139°46'0 0.0
2016-May-27 18:28N 35°39' E 139°46'0 0.0
2016-May-27 17:31N 35°39' E 139°46'0 0.0
2016-May-27 16:28N 35°39' E 139°46'0 0.0
2016-May-27 15:31N 35°39' E 139°46'0 0.0
2016-May-27 14:31N 35°39' E 139°46'0 0.0
2016-May-27 13:28N 35°39' E 139°46'2 2.4
2016-May-27 12:33N 35°37' E 139°47'0 0.3
2016-May-27 11:30N 35°36' E 139°47'0 0.0
2016-May-27 10:30N 35°36' E 139°47'1 0.7
2016-May-27 09:32N 35°36' E 139°48'1 1.4
2016-May-27 08:34N 35°36' E 139°46'2 2.3
2016-May-27 07:32N 35°39' E 139°46'0 0.0
2016-May-27 06:32N 35°39' E 139°46'0 0.0
2016-May-27 05:32N 35°39' E 139°46'0 0.0
2016-May-27 04:32N 35°39' E 139°46'0 0.0
2016-May-27 03:32N 35°39' E 139°46'0 0.0
2016-May-27 02:32N 35°39' E 139°46'0 0.0
2016-May-27 01:29N 35°39' E 139°46'0 0.0
2016-May-27 00:23N 35°39' E 139°46'0 0.0
2016-May-26 23:32N 35°39' E 139°46'3 2.6
2016-May-26 22:33N 35°36' E 139°47'2 2.2
2016-May-26 21:34N 35°34' E 139°48'4 3.6
2016-May-26 20:33N 35°38' E 139°46'1 1.1
2016-May-26 19:32N 35°39' E 139°46'0 0.0
2016-May-26 18:32N 35°39' E 139°46'0 0.0
2016-May-26 17:26N 35°39' E 139°46'0 0.0
2016-May-26 16:32N 35°39' E 139°46'0 0.0
2016-May-26 15:29N 35°39' E 139°46'0 0.0
2016-May-26 14:32N 35°39' E 139°46'0 0.0
2016-May-26 13:29N 35°39' E 139°46'0 0.0
2016-May-26 12:32N 35°39' E 139°46'0 0.0
2016-May-26 11:26N 35°39' E 139°46'0 0.0
2016-May-26 10:32N 35°39' E 139°46'0 0.0
2016-May-26 09:32N 35°39' E 139°46'0 0.0
2016-May-26 08:32N 35°39' E 139°46'0 0.0
2016-May-26 07:32N 35°39' E 139°46'0 0.0
2016-May-26 06:32N 35°39' E 139°46'3 2.7
2016-May-26 05:33N 35°36' E 139°47'3 2.3
2016-May-26 04:24N 35°39' E 139°46'0 0.0
2016-May-26 03:30N 35°39' E 139°46'0 0.0
2016-May-26 02:30N 35°39' E 139°46'0 0.0
2016-May-26 01:30N 35°39' E 139°46'0 0.0
2016-May-26 00:27N 35°39' E 139°46'0 0.0
2016-May-25 23:33N 35°39' E 139°46'0 0.0
2016-May-25 22:33N 35°39' E 139°46'0 0.0
2016-May-25 21:15N 35°39' E 139°46'0 0.0
2016-May-25 20:33N 35°39' E 139°46'0 0.0
2016-May-25 19:33N 35°39' E 139°46'0 0.0
2016-May-25 18:27N 35°39' E 139°46'0 0.0
2016-May-25 17:33N 35°39' E 139°46'0 0.0
2016-May-25 16:33N 35°39' E 139°46'0 0.0
2016-May-25 15:30N 35°39' E 139°46'0 0.0
2016-May-25 14:30N 35°39' E 139°46'0 0.0
2016-May-25 13:33N 35°39' E 139°46'0 0.0
2016-May-25 12:33N 35°39' E 139°46'0 0.0
2016-May-25 11:33N 35°39' E 139°46'0 0.0
2016-May-25 10:33N 35°39' E 139°46'3 3.0
2016-May-25 09:34N 35°36' E 139°46'1 0.7
2016-May-25 08:31N 35°36' E 139°47'2 1.7
2016-May-25 07:31N 35°37' E 139°46'2 1.6
2016-May-25 06:30N 35°39' E 139°46'0 0.0
2016-May-25 05:24N 35°39' E 139°46'0 0.0
2016-May-25 04:33N 35°39' E 139°46'0 0.0
2016-May-25 03:33N 35°39' E 139°46'0 0.0
2016-May-25 02:30N 35°39' E 139°46'0 0.0
2016-May-25 01:33N 35°39' E 139°46'0 0.0
2016-May-25 00:33N 35°39' E 139°46'2 2.2
2016-May-24 23:33N 35°37' E 139°46'2 2.2
2016-May-24 22:33N 35°35' E 139°48'2 1.9
2016-May-24 21:33N 35°34' E 139°50'5 4.9
2016-May-24 20:33N 35°38' E 139°46'1 1.0
2016-May-24 19:32N 35°37' E 139°46'2 2.4
2016-May-24 18:33N 35°39' E 139°46'0 0.0
2016-May-24 17:33N 35°39' E 139°46'0 0.0
2016-May-24 16:33N 35°39' E 139°46'0 0.0
2016-May-24 15:33N 35°39' E 139°46'0 0.0
2016-May-24 14:30N 35°39' E 139°46'0 0.0
2016-May-24 13:27N 35°39' E 139°46'0 0.1
2016-May-24 12:33N 35°39' E 139°46'0 0.0
2016-May-24 11:27N 35°39' E 139°46'0 0.0
2016-May-24 10:30N 35°39' E 139°46'0 0.0
2016-May-24 09:33N 35°39' E 139°46'0 0.0
2016-May-24 08:30N 35°39' E 139°46'0 0.0
2016-May-24 07:33N 35°39' E 139°46'0 0.1
2016-May-24 06:33N 35°39' E 139°46'0 0.1
2016-May-24 05:33N 35°39' E 139°46'0 0.0
2016-May-24 04:33N 35°39' E 139°46'0 0.0
2016-May-24 03:33N 35°39' E 139°46'0 0.0
2016-May-24 02:33N 35°39' E 139°46'3 3.2
2016-May-24 01:33N 35°36' E 139°47'2 2.0
2016-May-24 00:34N 35°37' E 139°46'1 1.3
2016-May-23 23:28N 35°39' E 139°46'0 0.0
2016-May-23 22:28N 35°39' E 139°46'0 0.0
2016-May-23 21:28N 35°39' E 139°46'0 0.0
2016-May-23 20:31N 35°39' E 139°46'0 0.0
2016-May-23 19:31N 35°39' E 139°46'0 0.0
2016-May-23 18:31N 35°39' E 139°46'0 0.0
2016-May-23 17:28N 35°39' E 139°46'0 0.0
2016-May-23 16:31N 35°39' E 139°46'0 0.0
2016-May-23 15:28N 35°39' E 139°46'0 0.0
2016-May-23 14:31N 35°39' E 139°46'0 0.0
2016-May-23 13:28N 35°39' E 139°46'0 0.0
2016-May-23 12:31N 35°39' E 139°46'0 0.0
2016-May-23 11:28N 35°39' E 139°46'1 0.7
2016-May-23 10:34N 35°38' E 139°45'3 2.7
2016-May-23 09:33N 35°36' E 139°47'0 0.4
2016-May-23 08:29N 35°36' E 139°47'0 0.0
2016-May-23 07:32N 35°36' E 139°47'1 1.4
2016-May-23 06:33N 35°37' E 139°46'2 1.8
2016-May-23 05:28N 35°39' E 139°46'0 0.0
2016-May-23 04:31N 35°39' E 139°46'0 0.0
2016-May-23 03:31N 35°39' E 139°46'0 0.0
2016-May-23 02:31N 35°39' E 139°46'0 0.0
2016-May-23 01:28N 35°39' E 139°46'0 0.0
2016-May-23 00:31N 35°39' E 139°46'0 0.0
2016-May-22 23:31N 35°39' E 139°46'0 0.0
2016-May-22 22:28N 35°39' E 139°46'0 0.0
2016-May-22 21:31N 35°39' E 139°46'0 0.0
2016-May-22 20:31N 35°39' E 139°46'0 0.0
2016-May-22 19:31N 35°39' E 139°46'0 0.0
2016-May-22 18:31N 35°39' E 139°46'0 0.0
2016-May-22 17:31N 35°39' E 139°46'0 0.0
2016-May-22 16:31N 35°39' E 139°46'0 0.0
2016-May-22 15:31N 35°39' E 139°46'0 0.0
2016-May-22 14:31N 35°39' E 139°46'0 0.0
2016-May-22 13:31N 35°39' E 139°46'0 0.0
2016-May-22 12:31N 35°39' E 139°46'0 0.0
2016-May-22 11:28N 35°39' E 139°46'3 3.0
2016-May-22 10:31N 35°36' E 139°47'2 2.5
2016-May-22 09:34N 35°34' E 139°49'2 2.1
2016-May-22 08:33N 35°35' E 139°47'2 2.0
2016-May-22 07:33N 35°37' E 139°46'1 1.0
2016-May-22 06:33N 35°38' E 139°46'0 0.0
2016-May-22 05:15N 35°38' E 139°46'0 0.0
2016-May-22 04:27N 35°38' E 139°46'3 2.7
2016-May-22 03:27N 35°36' E 139°46'0 0.0
2016-May-22 02:33N 35°36' E 139°46'0 0.0
2016-May-22 01:30N 35°36' E 139°46'0 0.0
2016-May-22 00:30N 35°36' E 139°46'1 1.1
2016-May-21 23:33N 35°37' E 139°47'1 1.4
2016-May-21 22:33N 35°35' E 139°47'4 3.5
2016-May-21 21:32N 35°39' E 139°46'0 0.0
2016-May-21 20:23N 35°39' E 139°46'0 0.0
2016-May-21 19:32N 35°39' E 139°46'0 0.0
2016-May-21 18:29N 35°39' E 139°46'0 0.0
2016-May-21 17:29N 35°39' E 139°46'0 0.0
2016-May-21 16:29N 35°39' E 139°46'0 0.0
2016-May-21 15:32N 35°39' E 139°46'0 0.0
2016-May-21 14:32N 35°39' E 139°46'0 0.0
2016-May-21 13:32N 35°39' E 139°46'0 0.0
2016-May-21 12:32N 35°39' E 139°46'0 0.0
2016-May-21 11:29N 35°39' E 139°46'0 0.0
2016-May-21 10:26N 35°39' E 139°46'2 2.0
2016-May-21 09:34N 35°37' E 139°46'1 1.1
2016-May-21 08:33N 35°36' E 139°46'1 1.5
2016-May-21 07:33N 35°37' E 139°46'1 1.4
2016-May-21 06:32N 35°39' E 139°46'0 0.0
2016-May-21 05:32N 35°39' E 139°46'0 0.0
2016-May-21 04:29N 35°39' E 139°46'0 0.0
2016-May-21 03:32N 35°39' E 139°46'0 0.0
2016-May-21 02:32N 35°39' E 139°46'0 0.0
2016-May-21 01:29N 35°39' E 139°46'0 0.0
2016-May-21 00:32N 35°39' E 139°46'0 0.0
2016-May-20 23:32N 35°39' E 139°46'3 2.6
2016-May-20 22:33N 35°36' E 139°46'3 2.7
2016-May-20 21:33N 35°34' E 139°48'5 4.6
2016-May-20 20:30N 35°39' E 139°46'0 0.0
2016-May-20 19:30N 35°39' E 139°46'0 0.0
2016-May-20 18:33N 35°39' E 139°46'0 0.0
2016-May-20 17:33N 35°39' E 139°46'0 0.0
2016-May-20 16:33N 35°39' E 139°46'0 0.0
2016-May-20 15:33N 35°39' E 139°46'0 0.0
2016-May-20 14:33N 35°39' E 139°46'0 0.0
2016-May-20 13:33N 35°39' E 139°46'0 0.0
2016-May-20 12:33N 35°39' E 139°46'0 0.0
2016-May-20 11:33N 35°39' E 139°46'0 0.0
2016-May-20 10:33N 35°39' E 139°46'0 0.0
2016-May-20 09:33N 35°39' E 139°46'0 0.0
2016-May-20 08:33N 35°39' E 139°46'0 0.0
2016-May-20 07:33N 35°39' E 139°46'0 0.0
2016-May-20 06:33N 35°39' E 139°46'0 0.0
2016-May-20 05:33N 35°39' E 139°46'0 0.0
2016-May-20 04:33N 35°39' E 139°46'0 0.0
2016-May-20 03:33N 35°39' E 139°46'0 0.0
2016-May-20 02:27N 35°39' E 139°46'0 0.0
2016-May-20 01:33N 35°39' E 139°46'0 0.0
2016-May-20 00:33N 35°39' E 139°46'2 2.1
2016-May-19 23:28N 35°37' E 139°47'3 3.6
2016-May-19 22:33N 35°34' E 139°49'5 5.4
2016-May-19 21:33N 35°39' E 139°46'0 0.1
2016-May-19 20:32N 35°39' E 139°46'0 0.0
2016-May-19 19:32N 35°39' E 139°46'0 0.0
2016-May-19 18:26N 35°39' E 139°46'0 0.0
2016-May-19 17:32N 35°39' E 139°46'0 0.0
2016-May-19 16:32N 35°39' E 139°46'0 0.0
2016-May-19 15:32N 35°39' E 139°46'0 0.0
2016-May-19 14:32N 35°39' E 139°46'0 0.0
2016-May-19 13:32N 35°39' E 139°46'0 0.0
2016-May-19 12:32N 35°39' E 139°46'0 0.0
2016-May-19 11:29N 35°39' E 139°46'0 0.0
2016-May-19 10:29N 35°39' E 139°46'0 0.0
2016-May-19 09:32N 35°39' E 139°46'0 0.0
2016-May-19 08:29N 35°39' E 139°46'0 0.0
2016-May-19 07:32N 35°39' E 139°46'0 0.0
2016-May-19 06:32N 35°39' E 139°46'0 0.0
2016-May-19 04:32N 35°39' E 139°46'0 0.0
2016-May-19 03:32N 35°39' E 139°46'0 0.0
2016-May-19 02:32N 35°39' E 139°46'0 0.0
2016-May-19 01:32N 35°39' E 139°46'0 0.0
2016-May-19 00:32N 35°39' E 139°46'0 0.0
2016-May-18 23:29N 35°39' E 139°46'0 0.0
2016-May-18 22:08N 35°39' E 139°46'0 0.0
2016-May-18 21:32N 35°39' E 139°46'0 0.0
2016-May-18 20:32N 35°39' E 139°46'0 0.0
2016-May-18 19:32N 35°39' E 139°46'0 0.0
2016-May-18 18:32N 35°39' E 139°46'0 0.0
2016-May-18 17:32N 35°39' E 139°46'1 0.6
2016-May-18 16:33N 35°38' E 139°45'3 3.3
2016-May-18 15:33N 35°35' E 139°47'1 0.7
2016-May-18 14:33N 35°35' E 139°47'0 0.0
2016-May-18 13:33N 35°35' E 139°47'0 0.0
2016-May-18 12:33N 35°35' E 139°47'0 0.2
2016-May-18 11:33N 35°35' E 139°47'1 1.2
2016-May-18 10:33N 35°36' E 139°46'1 1.5
2016-May-18 09:33N 35°35' E 139°47'2 1.6
2016-May-18 08:33N 35°34' E 139°49'3 2.9
2016-May-18 07:33N 35°37' E 139°47'  

Dump ship's entire track history